Time;durP1;ratioP1;P1;durP2;ratioP2;P2;SDS_P1;SDS_P2;PMS_P1;PMS_P2;Temp;Humidity;BMP_temperature;BMP_pressure;BME280_temperature;BME280_humidity;BME280_pressure;Samples;Min_cycle;Max_cycle;Signal;HPM_P1;HPM_P2
2023/07/09 00:02:22;;;;;;;12.05;6.72;;;21.80;99.90;;;;;;5074679;28;20116;-68
2023/07/09 00:04:47;;;;;;;11.90;8.15;;;21.10;99.90;;;;;;5074535;28;20032;-68
2023/07/09 00:07:29;;;;;;;10.38;7.03;;;21.30;99.90;;;;;;5074223;28;20120;-68
2023/07/09 00:09:55;;;;;;;9.15;7.32;;;21.40;58.70;;;;;;5073147;28;20076;-68
2023/07/09 00:12:21;;;;;;;9.63;7.25;;;21.80;35.00;;;;;;5074479;28;20048;-68
2023/07/09 00:14:47;;;;;;;12.63;7.05;;;21.90;60.40;;;;;;5073122;28;20438;-69
2023/07/09 00:17:25;;;;;;;12.00;6.45;;;21.40;80.70;;;;;;5074337;28;20044;-68
2023/07/09 00:19:51;;;;;;;11.43;7.28;;;20.90;99.90;;;;;;5073951;28;20094;-68
2023/07/09 00:22:18;;;;;;;8.55;6.18;;;20.90;99.90;;;;;;5074263;28;20392;-67
2023/07/09 00:24:47;;;;;;;8.57;6.60;;;21.50;99.90;;;;;;5074155;28;20032;-68
2023/07/09 00:27:14;;;;;;;10.18;6.75;;;21.20;1.00;;;;;;5074204;28;20036;-67
2023/07/09 00:29:40;;;;;;;7.47;5.93;;;21.20;99.90;;;;;;5074130;28;20109;-67
2023/07/09 00:32:20;;;;;;;11.10;7.35;;;21.00;99.90;;;;;;5074024;28;20048;-67
2023/07/09 00:34:48;;;;;;;11.68;6.60;;;21.10;99.90;;;;;;5072879;28;20037;-67
2023/07/09 00:37:16;;;;;;;10.40;7.00;;;21.40;99.90;;;;;;5073727;28;20071;-67
2023/07/09 00:39:42;;;;;;;8.68;6.80;;;20.80;99.90;;;;;;5073857;28;20048;-67
2023/07/09 00:42:17;;;;;;;10.63;6.95;;;20.80;99.90;;;;;;5073555;28;20447;-68
2023/07/09 00:44:47;;;;;;;9.98;7.32;;;20.90;99.90;;;;;;5073739;28;20048;-67
2023/07/09 00:47:29;;;;;;;8.35;5.68;;;20.70;99.90;;;;;;5073782;28;20043;-68
2023/07/09 00:50:35;;;;;;;8.73;7.07;;;21.30;99.90;;;;;;5073717;28;20044;-68
2023/07/09 00:53:18;;;;;;;11.80;5.90;;;20.70;99.90;;;;;;5067348;28;20056;-69
2023/07/09 00:55:50;;;;;;;12.18;6.45;;;20.70;99.90;;;;;;5072272;28;20476;-68
2023/07/09 00:58:16;;;;;;;7.90;5.85;;;20.40;99.90;;;;;;5071796;28;20060;-68
2023/07/09 01:00:46;;;;;;;10.18;6.68;;;20.60;99.90;;;;;;5073098;28;20444;-67
2023/07/09 01:03:19;;;;;;;13.10;6.28;;;20.70;99.90;;;;;;5073478;28;20118;-67
2023/07/09 01:05:51;;;;;;;7.93;6.35;;;20.80;99.90;;;;;;5073409;28;20033;-67
2023/07/09 01:08:18;;;;;;;8.00;6.15;;;20.70;99.90;;;;;;5071352;28;20044;-67
2023/07/09 01:10:44;;;;;;;9.25;6.35;;;20.50;99.90;;;;;;5073297;28;20037;-68
2023/07/09 01:13:10;;;;;;;9.45;6.18;;;20.60;99.90;;;;;;5071948;28;20506;-68
2023/07/09 01:15:37;;;;;;;9.60;6.55;;;20.40;99.90;;;;;;5072995;28;20032;-67
2023/07/09 01:18:04;;;;;;;8.63;5.50;;;20.60;99.90;;;;;;5088410;28;20044;-68
2023/07/09 01:20:30;;;;;;;8.05;5.85;;;20.60;99.90;;;;;;5073171;28;20432;-67
2023/07/09 01:22:56;;;;;;;10.63;5.80;;;20.50;99.90;;;;;;5073058;28;20483;-67
2023/07/09 01:25:23;;;;;;;6.93;5.65;;;20.50;99.90;;;;;;5072845;28;20080;-67
2023/07/09 01:27:50;;;;;;;7.70;6.03;;;20.50;99.90;;;;;;5073101;28;20039;-67
2023/07/09 01:30:24;;;;;;;8.80;6.18;;;20.60;99.90;;;;;;5073122;28;20037;-67
2023/07/09 01:32:51;;;;;;;10.13;6.30;;;20.60;99.90;;;;;;5073059;28;20044;-67
2023/07/09 01:35:19;;;;;;;7.22;6.15;;;20.50;99.90;;;;;;5073004;28;20115;-68
2023/07/09 01:37:46;;;;;;;10.18;5.95;;;20.50;99.90;;;;;;5072906;28;20044;-67
2023/07/09 01:40:14;;;;;;;7.88;6.65;;;20.40;99.90;;;;;;5073007;28;20040;-68
2023/07/09 01:42:41;;;;;;;8.82;6.35;;;21.10;99.90;;;;;;5072562;28;20037;-67
2023/07/09 01:45:09;;;;;;;10.88;6.80;;;20.50;99.90;;;;;;5072815;28;20072;-67
2023/07/09 01:47:36;;;;;;;7.72;5.82;;;20.40;99.90;;;;;;5071686;28;20043;-68
2023/07/09 01:50:02;;;;;;;10.05;6.05;;;20.30;99.90;;;;;;5071309;28;20044;-67
2023/07/09 01:52:30;;;;;;;8.15;5.95;;;20.20;99.90;;;;;;5072608;28;20404;-68
2023/07/09 01:54:56;;;;;;;9.52;5.72;;;20.20;99.90;;;;;;5072773;28;20063;-67
2023/07/09 01:57:24;;;;;;;8.45;6.32;;;20.20;99.90;;;;;;5072218;28;20045;-67
2023/07/09 01:59:54;;;;;;;8.75;6.60;;;20.20;99.90;;;;;;5072713;28;20464;-67
2023/07/09 02:02:22;;;;;;;9.43;6.57;;;20.10;99.90;;;;;;5072757;28;20086;-67
2023/07/09 02:04:49;;;;;;;8.57;6.00;;;19.80;99.90;;;;;;5072643;28;20492;-68
2023/07/09 02:07:16;;;;;;;9.23;6.95;;;19.90;99.90;;;;;;5072672;28;20523;-67
2023/07/09 02:09:41;;;;;;;9.38;6.32;;;20.10;99.90;;;;;;5072512;28;20044;-67
2023/07/09 02:12:09;;;;;;;8.30;6.35;;;20.00;99.90;;;;;;5072585;28;20502;-68
2023/07/09 02:14:35;;;;;;;9.70;6.25;;;20.00;99.90;;;;;;5072590;28;20040;-67
2023/07/09 02:17:01;;;;;;;9.20;5.85;;;20.00;99.90;;;;;;5072452;28;20055;-67
2023/07/09 02:19:28;;;;;;;8.48;6.75;;;19.90;99.90;;;;;;5073300;28;20495;-67
2023/07/09 02:21:55;;;;;;;9.85;5.75;;;20.00;99.90;;;;;;5076536;28;20040;-68
2023/07/09 02:24:24;;;;;;;9.93;6.15;;;19.70;99.90;;;;;;5076555;28;20032;-67
2023/07/09 02:27:00;;;;;;;8.68;5.93;;;19.90;99.90;;;;;;5076172;28;20046;-67
2023/07/09 02:29:27;;;;;;;9.70;5.63;;;19.90;99.90;;;;;;5076453;28;20055;-67
2023/07/09 02:31:57;;;;;;;7.97;5.85;;;19.90;99.90;;;;;;5076019;28;20043;-67
2023/07/09 02:34:25;;;;;;;9.40;5.55;;;19.80;99.90;;;;;;5076298;28;20045;-67
2023/07/09 02:36:55;;;;;;;8.63;6.65;;;19.80;99.90;;;;;;5074664;28;20128;-67
2023/07/09 02:39:22;;;;;;;8.18;6.50;;;20.40;99.90;;;;;;5076196;28;20036;-68
2023/07/09 02:41:48;;;;;;;9.38;6.60;;;19.80;99.90;;;;;;5076102;28;20127;-68
2023/07/09 02:44:15;;;;;;;8.80;6.57;;;19.70;99.90;;;;;;5074572;28;20101;-67
2023/07/09 02:46:41;;;;;;;11.82;6.05;;;19.70;99.90;;;;;;5076009;28;20143;-68
2023/07/09 02:49:12;;;;;;;7.90;5.55;;;19.70;99.90;;;;;;5076130;28;20098;-67
2023/07/09 02:51:38;;;;;;;8.65;5.60;;;19.70;99.90;;;;;;5076053;28;20047;-68
2023/07/09 02:54:05;;;;;;;8.38;6.30;;;19.60;99.90;;;;;;5075627;28;20051;-67
2023/07/09 02:56:31;;;;;;;8.00;5.95;;;19.60;99.90;;;;;;5075887;28;20048;-68
2023/07/09 02:58:57;;;;;;;8.10;6.25;;;19.60;99.90;;;;;;5075456;28;20055;-68
2023/07/09 03:01:26;;;;;;;7.57;5.60;;;19.60;99.90;;;;;;5075465;28;20041;-68
2023/07/09 03:03:53;;;;;;;9.55;6.10;;;19.60;99.90;;;;;;5074287;28;20119;-67
2023/07/09 03:06:23;;;;;;;9.48;6.30;;;19.60;99.90;;;;;;5075796;28;20116;-68
2023/07/09 03:08:49;;;;;;;9.90;6.05;;;19.60;99.90;;;;;;5075687;28;20043;-67
2023/07/09 03:11:16;;;;;;;7.63;5.65;;;19.50;99.90;;;;;;5075587;28;20040;-67
2023/07/09 03:13:41;;;;;;;10.35;6.13;;;19.40;99.90;;;;;;5075499;28;20048;-67
2023/07/09 03:16:07;;;;;;;8.43;6.15;;;19.60;99.90;;;;;;5075569;28;20041;-68
2023/07/09 03:18:33;;;;;;;9.82;6.22;;;19.60;99.90;;;;;;5075368;28;20040;-67
2023/07/09 03:20:59;;;;;;;8.57;6.30;;;19.60;99.90;;;;;;5075155;28;20415;-68
2023/07/09 03:23:25;;;;;;;8.65;5.90;;;19.60;99.90;;;;;;5075395;28;20395;-67
2023/07/09 03:25:51;;;;;;;7.80;5.85;;;19.50;99.90;;;;;;5075347;28;20036;-67
2023/07/09 03:28:17;;;;;;;9.93;6.07;;;19.60;99.90;;;;;;5075049;28;20052;-67
2023/07/09 03:30:45;;;;;;;8.95;6.05;;;19.60;99.90;;;;;;5074859;28;20111;-67
2023/07/09 03:33:12;;;;;;;7.45;6.00;;;19.50;99.90;;;;;;5075002;28;20115;-68
2023/07/09 03:35:40;;;;;;;7.05;5.88;;;19.50;99.90;;;;;;5075113;28;20048;-68
2023/07/09 03:38:07;;;;;;;10.23;6.18;;;19.60;99.90;;;;;;5075103;28;20388;-68
2023/07/09 03:40:33;;;;;;;7.80;6.03;;;19.80;99.90;;;;;;5090403;28;20041;-68
2023/07/09 03:42:59;;;;;;;11.32;6.63;;;19.50;99.90;;;;;;5075046;28;20051;-67
2023/07/09 03:45:25;;;;;;;9.27;6.90;;;19.50;99.90;;;;;;5073548;28;20474;-67
2023/07/09 03:47:50;;;;;;;9.85;6.15;;;19.60;99.90;;;;;;5075016;28;20033;-67
2023/07/09 03:50:16;;;;;;;7.88;5.85;;;20.10;99.90;;;;;;5074965;28;20130;-67
2023/07/09 03:52:42;;;;;;;8.90;6.50;;;19.50;99.90;;;;;;5074811;28;20048;-67
2023/07/09 03:55:08;;;;;;;9.27;6.30;;;20.20;99.90;;;;;;5074860;28;20112;-67
2023/07/09 03:57:34;;;;;;;8.38;6.32;;;19.60;99.90;;;;;;5073007;28;20061;-66
2023/07/09 04:00:02;;;;;;;12.38;6.22;;;19.60;99.90;;;;;;5073500;28;20053;-67
2023/07/09 04:02:28;;;;;;;11.07;7.10;;;20.00;99.90;;;;;;5074702;28;20496;-67
2023/07/09 04:04:53;;;;;;;7.82;6.13;;;19.60;99.90;;;;;;5074660;28;20036;-67
2023/07/09 04:07:19;;;;;;;9.00;6.20;;;19.60;99.90;;;;;;5073041;28;20102;-68
2023/07/09 04:09:45;;;;;;;9.15;6.20;;;19.60;99.90;;;;;;5074614;28;20047;-67
2023/07/09 04:12:11;;;;;;;10.65;6.72;;;19.50;99.90;;;;;;5074257;28;20404;-67
2023/07/09 04:14:36;;;;;;;7.50;6.40;;;19.60;99.90;;;;;;5074156;28;20574;-67
2023/07/09 04:17:03;;;;;;;10.40;6.85;;;19.70;99.90;;;;;;5074339;28;20029;-67
2023/07/09 04:19:28;;;;;;;8.88;6.75;;;19.70;99.90;;;;;;5074056;28;20045;-67
2023/07/09 04:21:55;;;;;;;9.93;6.78;;;19.70;99.90;;;;;;5074170;28;20032;-67
2023/07/09 04:24:21;;;;;;;9.70;6.32;;;19.70;99.90;;;;;;5074272;28;20039;-68
2023/07/09 04:26:47;;;;;;;9.73;6.32;;;20.60;99.90;;;;;;5074185;28;20119;-67
2023/07/09 04:29:13;;;;;;;10.82;6.85;;;19.80;99.90;;;;;;5074118;28;20453;-67
2023/07/09 04:31:40;;;;;;;10.18;6.43;;;19.90;99.90;;;;;;5073809;28;20046;-67
2023/07/09 04:34:06;;;;;;;7.97;6.22;;;20.40;99.90;;;;;;5073868;28;20101;-68
2023/07/09 04:36:32;;;;;;;8.43;6.18;;;20.00;99.90;;;;;;5074079;28;20040;-68
2023/07/09 04:38:57;;;;;;;8.88;6.13;;;20.60;99.90;;;;;;5073877;28;20079;-68
2023/07/09 04:41:23;;;;;;;7.63;5.93;;;20.10;99.90;;;;;;5073733;28;20128;-68
2023/07/09 04:43:49;;;;;;;12.20;6.45;;;20.10;99.90;;;;;;5073302;28;20029;-67
2023/07/09 04:46:15;;;;;;;10.85;6.50;;;20.10;99.90;;;;;;5072507;28;20495;-67
2023/07/09 04:48:40;;;;;;;9.77;5.70;;;20.20;99.90;;;;;;5073712;28;20040;-67
2023/07/09 04:51:06;;;;;;;9.40;6.40;;;20.30;99.90;;;;;;5073744;28;20089;-67
2023/07/09 04:53:32;;;;;;;7.95;6.03;;;20.30;99.90;;;;;;5073334;28;20040;-68
2023/07/09 04:55:57;;;;;;;11.82;6.45;;;20.40;99.90;;;;;;5073679;28;20075;-67
2023/07/09 04:58:24;;;;;;;9.43;6.43;;;20.40;99.90;;;;;;5073223;28;20055;-67
2023/07/09 05:00:52;;;;;;;9.18;5.78;;;20.50;99.90;;;;;;5073487;28;20059;-68
2023/07/09 05:03:21;;;;;;;9.75;6.45;;;20.50;99.90;;;;;;5071929;28;20381;-67
2023/07/09 05:05:47;;;;;;;8.60;6.18;;;20.60;99.90;;;;;;5073477;28;20471;-67
2023/07/09 05:08:13;;;;;;;9.57;6.10;;;20.60;99.90;;;;;;5088727;28;20040;-68
2023/07/09 05:10:42;;;;;;;10.10;5.75;;;20.70;99.90;;;;;;5073170;28;20453;-67
2023/07/09 05:13:08;;;;;;;8.23;6.32;;;20.80;99.90;;;;;;5072129;28;20055;-67
2023/07/09 05:15:34;;;;;;;7.75;6.38;;;20.80;99.90;;;;;;5072950;28;20040;-68
2023/07/09 05:17:59;;;;;;;9.95;6.30;;;20.90;99.90;;;;;;5072835;28;20496;-69
2023/07/09 05:20:25;;;;;;;8.65;5.95;;;20.80;99.90;;;;;;5055000;28;20107;-68
2023/07/09 05:22:51;;;;;;;10.43;6.10;;;21.10;99.90;;;;;;5073054;28;20051;-68
2023/07/09 05:25:17;;;;;;;9.60;6.75;;;21.20;99.90;;;;;;5071594;28;20051;-68
2023/07/09 05:27:43;;;;;;;7.85;6.18;;;21.30;99.90;;;;;;5073014;28;20044;-68
2023/07/09 05:30:09;;;;;;;8.70;6.30;;;21.50;99.90;;;;;;5073176;28;20538;-68
2023/07/09 05:32:37;;;;;;;10.43;6.18;;;21.60;99.90;;;;;;5073005;28;20047;-71
2023/07/09 05:35:03;;;;;;;8.38;6.05;;;21.60;99.90;;;;;;5073026;28;20119;-70
2023/07/09 05:37:28;;;;;;;9.82;6.18;;;21.80;99.90;;;;;;5073010;28;20449;-70
2023/07/09 05:39:54;;;;;;;10.43;6.30;;;21.80;99.90;;;;;;5072966;28;20028;-71
2023/07/09 05:42:20;;;;;;;8.35;5.80;;;21.90;99.90;;;;;;5071449;28;20037;-69
2023/07/09 05:44:46;;;;;;;8.90;6.30;;;22.00;99.90;;;;;;5072570;28;20048;-69
2023/07/09 05:47:12;;;;;;;12.20;6.15;;;21.80;99.90;;;;;;5071618;28;20029;-75
2023/07/09 05:49:38;;;;;;;7.90;5.90;;;22.10;99.90;;;;;;5071956;28;20048;-71
2023/07/09 05:52:04;;;;;;;10.18;5.68;;;22.10;99.90;;;;;;5071408;28;20040;-72
2023/07/09 05:54:31;;;;;;;7.55;5.78;;;22.20;99.90;;;;;;5072694;28;20044;-72
2023/07/09 05:56:56;;;;;;;8.07;5.90;;;22.10;99.90;;;;;;5088401;28;20048;-69
2023/07/09 05:59:22;;;;;;;9.88;7.05;;;22.20;99.90;;;;;;5072260;28;20557;-70
2023/07/09 06:01:48;;;;;;;10.73;5.70;;;22.40;99.90;;;;;;5072704;28;20090;-70
2023/07/09 06:04:13;;;;;;;11.48;5.78;;;22.30;99.90;;;;;;5072483;28;20036;-68
2023/07/09 06:06:41;;;;;;;11.73;6.70;;;22.30;99.90;;;;;;5072750;28;20045;-68
2023/07/09 06:09:08;;;;;;;8.98;5.85;;;22.30;99.90;;;;;;5071383;28;20040;-67
2023/07/09 06:11:34;;;;;;;9.82;6.30;;;22.30;99.90;;;;;;5072405;28;20047;-66
2023/07/09 06:13:59;;;;;;;11.48;6.28;;;22.30;99.90;;;;;;5072473;28;20040;-67
2023/07/09 06:16:25;;;;;;;9.23;6.07;;;22.30;99.90;;;;;;5072239;28;20032;-67
2023/07/09 06:18:51;;;;;;;10.00;6.78;;;22.30;99.90;;;;;;5072433;28;20070;-72
2023/07/09 06:21:17;;;;;;;9.65;7.00;;;22.30;99.90;;;;;;5072770;28;20483;-72
2023/07/09 06:23:42;;;;;;;9.68;7.20;;;22.40;99.90;;;;;;5071332;28;20047;-72
2023/07/09 06:26:08;;;;;;;8.75;6.70;;;22.40;99.90;;;;;;5071644;28;20468;-70
2023/07/09 06:28:34;;;;;;;13.27;7.78;;;22.50;99.90;;;;;;5072197;28;20040;-70
2023/07/09 06:31:00;;;;;;;17.20;8.27;;;23.00;99.90;;;;;;5072279;28;20119;-70
2023/07/09 06:33:26;;;;;;;14.93;9.13;;;22.70;99.90;;;;;;5072211;28;20040;-71
2023/07/09 06:35:59;;;;;;;12.88;8.25;;;22.80;99.90;;;;;;5072421;28;20111;-71
2023/07/09 06:38:26;;;;;;;13.93;9.27;;;22.90;99.90;;;;;;5072001;28;20032;-69
2023/07/09 06:40:52;;;;;;;12.73;9.18;;;22.80;99.90;;;;;;5072281;28;20475;-68
2023/07/09 06:43:18;;;;;;;13.68;9.32;;;23.10;99.90;;;;;;5054119;28;20102;-69
2023/07/09 06:45:55;;;;;;;12.43;8.43;;;23.10;99.90;;;;;;5070681;28;20400;-72
2023/07/09 06:48:22;;;;;;;15.38;8.20;;;23.40;99.90;;;;;;5071906;28;20048;-71
2023/07/09 06:50:48;;;;;;;16.00;8.73;;;23.50;99.90;;;;;;5071932;28;20041;-69
2023/07/09 06:53:14;;;;;;;11.50;8.25;;;24.40;99.90;;;;;;5072061;28;20044;-69
2023/07/09 06:55:40;;;;;;;12.52;7.97;;;23.80;99.90;;;;;;5072106;28;20045;-71
2023/07/09 06:58:05;;;;;;;12.68;8.48;;;23.90;99.90;;;;;;5071557;28;20057;-70
2023/07/09 07:00:33;;;;;;;10.63;7.63;;;24.10;99.90;;;;;;5071952;28;20049;-70
2023/07/09 07:02:58;;;;;;;17.48;7.63;;;24.40;99.90;;;;;;5071738;28;20040;-71
2023/07/09 07:05:24;;;;;;;10.50;7.68;;;24.30;99.90;;;;;;5071246;28;20052;-71
2023/07/09 07:07:49;;;;;;;12.23;7.22;;;24.40;99.90;;;;;;5075593;28;20499;-70
2023/07/09 07:10:15;;;;;;;9.50;6.82;;;24.40;99.90;;;;;;5090868;28;20066;-71
2023/07/09 07:12:47;;;;;;;9.35;6.30;;;24.40;99.90;;;;;;5075485;28;20051;-70
2023/07/09 07:15:15;;;;;;;8.77;6.80;;;24.50;99.90;;;;;;5075088;28;20122;-69
2023/07/09 07:17:40;;;;;;;10.43;7.50;;;24.60;99.90;;;;;;5073771;28;20413;-68
2023/07/09 07:20:07;;;;;;;11.50;6.60;;;24.80;99.90;;;;;;5075318;28;20032;-69
2023/07/09 07:22:33;;;;;;;9.88;7.10;;;24.90;99.90;;;;;;5075409;28;20036;-69
2023/07/09 07:24:59;;;;;;;10.27;6.45;;;25.10;99.90;;;;;;5073471;28;20054;-67
2023/07/09 07:27:24;;;;;;;10.48;5.80;;;25.30;99.90;;;;;;5073453;28;20502;-67
2023/07/09 07:29:50;;;;;;;12.57;6.55;;;25.50;99.90;;;;;;5074901;28;20468;-63
2023/07/09 07:32:15;;;;;;;9.77;6.60;;;25.60;99.90;;;;;;5073374;28;20056;-66
2023/07/09 07:34:41;;;;;;;8.82;6.20;;;25.70;99.90;;;;;;5074873;28;20075;-68
2023/07/09 07:37:06;;;;;;;13.07;7.15;;;25.80;99.90;;;;;;5075212;28;20506;-68
2023/07/09 07:39:32;;;;;;;8.55;6.03;;;26.30;99.90;;;;;;5075046;28;20499;-68
2023/07/09 07:41:57;;;;;;;10.55;5.93;;;26.00;99.90;;;;;;5075127;28;20068;-67
2023/07/09 07:44:23;;;;;;;8.95;6.00;;;26.00;99.90;;;;;;5074723;28;20438;-68
2023/07/09 07:46:49;;;;;;;8.57;6.18;;;26.00;99.90;;;;;;5073494;28;20041;-68
2023/07/09 07:49:15;;;;;;;8.45;5.40;;;26.10;99.90;;;;;;5074956;28;20063;-66
2023/07/09 07:51:41;;;;;;;8.95;6.18;;;26.20;99.90;;;;;;5073579;28;20055;-67
2023/07/09 07:54:10;;;;;;;12.23;5.93;;;26.30;99.90;;;;;;5074981;28;20416;-67
2023/07/09 07:56:36;;;;;;;11.50;6.45;;;26.50;99.90;;;;;;5073548;28;20052;-67
2023/07/09 07:59:03;;;;;;;10.00;6.05;;;27.70;99.90;;;;;;5074266;28;20181;-68
2023/07/09 08:01:28;;;;;;;10.80;5.88;;;26.90;99.90;;;;;;5074756;28;20044;-68
2023/07/09 08:03:55;;;;;;;11.63;5.88;;;;;;;;;;5074747;28;20055;-68
2023/07/09 08:06:21;;;;;;;8.48;6.07;;;26.90;1.00;;;;;;5074381;28;20037;-68
2023/07/09 08:08:47;;;;;;;10.77;5.40;;;27.20;99.90;;;;;;5074551;28;20105;-68
2023/07/09 08:11:14;;;;;;;11.15;5.82;;;27.30;99.90;;;;;;5074780;28;20044;-68
2023/07/09 08:13:40;;;;;;;10.20;5.85;;;27.30;99.90;;;;;;5074479;28;20111;-69
2023/07/09 08:16:06;;;;;;;9.35;5.85;;;27.50;99.90;;;;;;5074201;28;20079;-66
2023/07/09 08:18:32;;;;;;;10.23;5.70;;;27.60;99.90;;;;;;5073894;28;20037;-67
2023/07/09 08:20:59;;;;;;;9.70;5.70;;;27.80;99.90;;;;;;5074325;28;20040;-67
2023/07/09 08:23:25;;;;;;;9.02;6.28;;;27.90;99.90;;;;;;5074320;28;20044;-67
2023/07/09 08:25:58;;;;;;;7.72;5.53;;;28.10;99.90;;;;;;5074202;28;20037;-67
2023/07/09 08:28:24;;;;;;;8.15;6.00;;;28.20;99.90;;;;;;5074196;28;20115;-69
2023/07/09 08:30:54;;;;;;;7.85;5.93;;;28.30;99.90;;;;;;5072948;28;20120;-70
2023/07/09 08:33:20;;;;;;;5.60;5.00;;;28.30;99.90;;;;;;5074287;28;20434;-70
2023/07/09 08:35:45;;;;;;;7.63;5.18;;;28.40;99.90;;;;;;5074155;28;20097;-70
2023/07/09 08:38:11;;;;;;;8.93;4.88;;;29.00;1.00;;;;;;5074090;28;20102;-68
2023/07/09 08:40:41;;;;;;;9.90;5.22;;;28.60;99.90;;;;;;5073959;28;20464;-66
2023/07/09 08:43:45;;;;;;;9.88;5.28;;;28.60;99.90;;;;;;5073654;28;20075;-69
2023/07/09 08:46:24;;;;;;;5.97;4.47;;;28.50;99.90;;;;;;5065199;28;20052;-69
2023/07/09 08:48:52;;;;;;;9.30;5.63;;;28.90;99.90;;;;;;5073442;28;20045;-68
2023/07/09 08:51:40;;;;;;;10.13;5.35;;;28.90;99.90;;;;;;5072236;28;20446;-68
2023/07/09 08:54:21;;;;;;;8.73;5.32;;;28.70;99.90;;;;;;5073764;28;20049;-70
2023/07/09 08:56:48;;;;;;;7.55;5.28;;;28.90;99.90;;;;;;5073442;28;20079;-69
2023/07/09 08:59:17;;;;;;;7.93;6.18;;;28.80;99.90;;;;;;5073222;28;20059;-68
2023/07/09 09:01:55;;;;;;;7.35;5.70;;;29.20;99.90;;;;;;5073701;28;20036;-70
2023/07/09 09:04:31;;;;;;;8.20;5.03;;;29.00;99.90;;;;;;5073815;28;20048;-68
2023/07/09 09:07:18;;;;;;;7.97;5.18;;;29.10;99.90;;;;;;5073199;28;20495;-71
2023/07/09 09:09:55;;;;;;;7.78;5.00;;;29.20;99.90;;;;;;5073126;28;20040;-71
2023/07/09 09:12:27;;;;;;;11.00;5.40;;;29.30;99.90;;;;;;5072131;28;20048;-69
2023/07/09 09:15:14;;;;;;;8.23;4.88;;;29.10;99.90;;;;;;5073264;28;20075;-70
2023/07/09 09:17:40;;;;;;;7.35;4.70;;;29.30;99.90;;;;;;5073255;28;20044;-72
2023/07/09 09:20:21;;;;;;;9.05;5.05;;;29.30;99.90;;;;;;5073086;28;20040;-68
2023/07/09 09:23:05;;;;;;;8.60;5.00;;;29.30;99.90;;;;;;5073304;28;20090;-70
2023/07/09 09:25:33;;;;;;;9.60;5.22;;;29.30;99.90;;;;;;5073129;28;20407;-70
2023/07/09 09:28:02;;;;;;;5.75;4.30;;;29.30;99.90;;;;;;5072472;28;20051;-70
2023/07/09 09:30:29;;;;;;;6.82;5.20;;;29.50;99.90;;;;;;5072809;28;20059;-71
2023/07/09 09:33:06;;;;;;;8.23;5.10;;;30.00;99.90;;;;;;5072923;28;20380;-68
2023/07/09 09:35:34;;;;;;;8.40;5.57;;;29.80;99.90;;;;;;5072611;28;20127;-68
2023/07/09 09:38:01;;;;;;;9.88;5.00;;;30.60;99.90;;;;;;5072937;28;20110;-68
2023/07/09 09:40:32;;;;;;;8.93;5.43;;;30.40;99.90;;;;;;5072610;28;20048;-69
2023/07/09 09:42:59;;;;;;;7.03;5.00;;;30.00;99.90;;;;;;5071674;28;20045;-69
2023/07/09 09:45:38;;;;;;;7.65;5.13;;;29.90;99.90;;;;;;5073010;28;20033;-69
2023/07/09 09:48:13;;;;;;;6.05;4.65;;;;;;;;;;5072996;28;20489;-71
2023/07/09 09:50:41;;;;;;;8.43;4.93;;;;;;;;;;5072962;28;20379;-69
2023/07/09 09:53:08;;;;;;;6.15;5.03;;;30.20;99.90;;;;;;5072917;28;20519;-74
2023/07/09 09:55:34;;;;;;;8.23;5.20;;;30.30;99.90;;;;;;5072607;28;20043;-70
2023/07/09 09:58:00;;;;;;;7.85;4.68;;;30.20;99.90;;;;;;5072430;28;20060;-71
2023/07/09 10:00:28;;;;;;;11.63;5.68;;;;;;;;;;5072557;28;20391;-70
2023/07/09 10:02:58;;;;;;;12.38;5.80;;;;;;;;;;5072790;28;20438;-69
2023/07/09 10:05:29;;;;;;;8.52;5.60;;;;;;;;;;5072796;28;20072;-68
2023/07/09 10:08:09;;;;;;;16.30;5.03;;;;;;;;;;5072420;28;20037;-70
2023/07/09 10:10:35;;;;;;;9.95;4.63;;;;;;;;;;5072347;28;20083;-71
2023/07/09 10:13:04;;;;;;;5.70;4.53;;;;;;;;;;5072634;28;20040;-71
2023/07/09 10:15:49;;;;;;;5.72;4.00;;;;;;;;;;5072452;28;20041;-70
2023/07/09 10:18:39;;;;;;;8.50;4.90;;;30.70;99.90;;;;;;5071115;28;20044;-70
2023/07/09 10:21:14;;;;;;;8.65;5.53;;;;;;;;;;5072661;28;20086;-70
2023/07/09 10:24:05;;;;;;;7.63;5.47;;;30.80;99.90;;;;;;5072642;28;20036;-71
2023/07/09 10:26:41;;;;;;;11.00;5.43;;;30.80;99.90;;;;;;5071068;28;20131;-68
2023/07/09 10:29:37;;;;;;;8.05;5.55;;;30.50;99.90;;;;;;5072493;28;20071;-69
2023/07/09 10:32:27;;;;;;;6.80;4.55;;;30.70;99.90;;;;;;5072070;28;20053;-68
2023/07/09 10:35:35;;;;;;;6.63;4.72;;;30.60;99.90;;;;;;5071086;28;20495;-67
2023/07/09 10:38:15;;;;;;;8.75;5.53;;;30.60;99.90;;;;;;5049771;28;20059;-67
2023/07/09 10:40:49;;;;;;;9.05;4.95;;;30.60;99.90;;;;;;5069701;28;20057;-70
2023/07/09 10:43:44;;;;;;;8.50;5.32;;;31.00;99.90;;;;;;5076170;28;20044;-72
2023/07/09 10:46:15;;;;;;;6.88;4.75;;;30.60;99.90;;;;;;5074917;28;20036;-71
2023/07/09 10:48:45;;;;;;;8.75;4.93;;;30.70;99.90;;;;;;5075970;28;20135;-69
2023/07/09 10:51:23;;;;;;;7.28;5.18;;;30.70;99.90;;;;;;5075571;28;20076;-70
2023/07/09 10:53:55;;;;;;;7.90;5.07;;;30.70;99.90;;;;;;5075958;28;20388;-70
2023/07/09 10:56:23;;;;;;;8.25;4.93;;;;;;;;;;5075905;28;20446;-68
2023/07/09 10:59:04;;;;;;;6.88;4.80;;;;;;;;;;5075369;28;20509;-69
2023/07/09 11:01:38;;;;;;;6.25;4.47;;;30.80;1.00;;;;;;5075744;28;20133;-69
2023/07/09 11:04:10;;;;;;;6.95;5.00;;;31.00;99.90;;;;;;5075666;28;20424;-70
2023/07/09 11:06:43;;;;;;;6.93;5.07;;;31.00;99.90;;;;;;5074384;28;20056;-69
2023/07/09 11:09:31;;;;;;;7.00;4.97;;;30.90;99.90;;;;;;5074086;28;20124;-69
2023/07/09 11:12:02;;;;;;;9.35;5.55;;;30.90;99.90;;;;;;5075636;28;20074;-69
2023/07/09 11:14:38;;;;;;;6.60;4.60;;;31.00;99.90;;;;;;5075669;28;20036;-69
2023/07/09 11:17:05;;;;;;;8.18;5.55;;;30.90;99.90;;;;;;5074114;28;20510;-70
2023/07/09 11:19:31;;;;;;;9.05;5.68;;;30.90;99.90;;;;;;5075495;28;20053;-68
2023/07/09 11:22:01;;;;;;;9.07;5.13;;;31.00;99.90;;;;;;5075329;28;20498;-69
2023/07/09 11:24:35;;;;;;;6.50;4.95;;;30.90;99.90;;;;;;5075232;28;20033;-68
2023/07/09 11:27:01;;;;;;;6.45;4.97;;;30.90;99.90;;;;;;5075441;28;20047;-69
2023/07/09 11:29:28;;;;;;;7.55;5.15;;;31.10;99.90;;;;;;5075158;28;20431;-68
2023/07/09 11:31:55;;;;;;;7.57;4.93;;;31.20;99.90;;;;;;5074981;28;20080;-69
2023/07/09 11:34:27;;;;;;;8.35;4.57;;;31.30;99.90;;;;;;5074981;28;20044;-69
2023/07/09 11:37:00;;;;;;;9.80;5.35;;;31.40;99.90;;;;;;5075256;28;20036;-69
2023/07/09 11:39:42;;;;;;;11.13;4.95;;;31.30;99.90;;;;;;5075099;28;20044;-69
2023/07/09 11:42:32;;;;;;;6.97;4.40;;;31.10;99.90;;;;;;5073675;28;20344;-69
2023/07/09 11:45:21;;;;;;;9.10;4.70;;;31.20;99.90;;;;;;5074777;28;20032;-69
2023/07/09 11:47:52;;;;;;;9.75;4.57;;;31.60;99.90;;;;;;5074606;28;20049;-69
2023/07/09 11:50:23;;;;;;;7.75;4.63;;;31.60;99.90;;;;;;5074866;28;20086;-69
2023/07/09 11:53:12;;;;;;;7.13;4.80;;;31.30;99.90;;;;;;5074265;28;20399;-69
2023/07/09 11:55:42;;;;;;;7.47;5.18;;;31.30;99.90;;;;;;5064480;28;20380;-70
2023/07/09 11:58:17;;;;;;;7.53;4.88;;;31.30;99.90;;;;;;5073363;28;20048;-69
2023/07/09 12:00:56;;;;;;;7.97;4.63;;;31.60;99.90;;;;;;5074444;28;20087;-69
2023/07/09 12:03:34;;;;;;;5.70;4.07;;;31.80;99.90;;;;;;5074686;28;20389;-68
2023/07/09 12:06:03;;;;;;;7.78;4.03;;;31.40;99.90;;;;;;5074272;28;20132;-70
2023/07/09 12:08:41;;;;;;;7.25;3.45;;;31.40;99.90;;;;;;5074689;28;20044;-69
2023/07/09 12:11:26;;;;;;;7.40;3.80;;;31.70;99.90;;;;;;5074646;28;20087;-69
2023/07/09 12:13:53;;;;;;;7.25;4.20;;;31.70;99.90;;;;;;5074446;28;20123;-69
2023/07/09 12:16:40;;;;;;;5.40;3.85;;;31.70;99.90;;;;;;5074526;28;20115;-69
2023/07/09 12:19:06;;;;;;;7.57;4.10;;;31.90;99.90;;;;;;5074291;28;20048;-69
2023/07/09 12:21:36;;;;;;;5.05;3.53;;;31.60;99.90;;;;;;5074199;28;20040;-69
2023/07/09 12:24:13;;;;;;;6.68;3.83;;;31.50;99.90;;;;;;5072700;28;20072;-69
2023/07/09 12:26:38;;;;;;;7.85;4.28;;;31.50;99.90;;;;;;5074008;28;20094;-70
2023/07/09 12:29:09;;;;;;;8.27;3.67;;;31.50;99.90;;;;;;5074353;28;20040;-69
2023/07/09 12:31:34;;;;;;;5.60;3.85;;;31.70;99.90;;;;;;5074189;28;20047;-69
2023/07/09 12:34:00;;;;;;;6.45;3.80;;;31.80;99.90;;;;;;5074081;28;20485;-69
2023/07/09 12:36:27;;;;;;;5.35;3.90;;;32.30;99.90;;;;;;5073858;28;20082;-69
2023/07/09 12:38:59;;;;;;;4.90;4.00;;;32.30;99.90;;;;;;5073987;28;20037;-70
2023/07/09 12:41:29;;;;;;;5.13;4.10;;;32.10;99.90;;;;;;5074030;28;20036;-69
2023/07/09 12:43:55;;;;;;;;;;;32.10;99.90;;;;;;5073068;28;20029;-70
2023/07/09 12:46:22;;;;;;;5.57;4.05;;;32.20;99.90;;;;;;5073642;28;19920;-69
2023/07/09 12:48:50;;;;;;;6.45;3.88;;;32.00;99.90;;;;;;5073452;28;20079;-69
2023/07/09 12:51:21;;;;;;;6.50;4.00;;;32.00;99.90;;;;;;5073619;28;20041;-69
2023/07/09 12:53:47;;;;;;;8.43;3.80;;;31.70;99.90;;;;;;5073737;28;20089;-69
2023/07/09 12:56:16;;;;;;;4.82;3.80;;;32.10;99.90;;;;;;5073652;28;20052;-69
2023/07/09 12:58:43;;;;;;;;;;;31.80;99.90;;;;;;5073517;28;20128;-69
2023/07/09 13:01:17;;;;;;;10.38;4.32;;;31.80;99.90;;;;;;5073464;28;20362;-69